sensor_id;sensor_type;location;lat;lon;timestamp;temperature;humidity
10873;DHT22;34586;53.616;10.032;2023-02-13T00:01:52;8.00;99.90
10873;DHT22;34586;53.616;10.032;2023-02-13T00:04:18;8.00;99.90
10873;DHT22;34586;53.616;10.032;2023-02-13T00:06:43;8.00;99.90
10873;DHT22;34586;53.616;10.032;2023-02-13T00:09:12;7.90;99.90
10873;DHT22;34586;53.616;10.032;2023-02-13T00:11:37;7.90;99.90
10873;DHT22;34586;53.616;10.032;2023-02-13T00:14:03;7.90;99.90
10873;DHT22;34586;53.616;10.032;2023-02-13T00:16:29;7.90;99.90
10873;DHT22;34586;53.616;10.032;2023-02-13T00:18:55;8.00;99.90
10873;DHT22;34586;53.616;10.032;2023-02-13T00:21:21;8.00;99.90
10873;DHT22;34586;53.616;10.032;2023-02-13T00:23:46;8.00;99.90
10873;DHT22;34586;53.616;10.032;2023-02-13T00:26:14;7.90;99.90
10873;DHT22;34586;53.616;10.032;2023-02-13T00:28:39;7.90;99.90
10873;DHT22;34586;53.616;10.032;2023-02-13T00:31:07;7.90;99.90
10873;DHT22;34586;53.616;10.032;2023-02-13T00:33:33;7.90;99.90
10873;DHT22;34586;53.616;10.032;2023-02-13T00:36:13;7.90;99.90
10873;DHT22;34586;53.616;10.032;2023-02-13T00:38:40;7.90;99.90
10873;DHT22;34586;53.616;10.032;2023-02-13T00:41:07;7.90;99.90
10873;DHT22;34586;53.616;10.032;2023-02-13T00:43:33;7.90;99.90
10873;DHT22;34586;53.616;10.032;2023-02-13T00:45:59;7.90;99.90
10873;DHT22;34586;53.616;10.032;2023-02-13T00:48:26;7.90;99.90
10873;DHT22;34586;53.616;10.032;2023-02-13T00:50:52;7.90;99.90
10873;DHT22;34586;53.616;10.032;2023-02-13T00:53:22;7.90;99.90
10873;DHT22;34586;53.616;10.032;2023-02-13T00:55:48;7.90;99.90
10873;DHT22;34586;53.616;10.032;2023-02-13T00:58:14;7.90;99.90
10873;DHT22;34586;53.616;10.032;2023-02-13T01:00:41;7.90;99.90
10873;DHT22;34586;53.616;10.032;2023-02-13T01:03:06;7.90;99.90
10873;DHT22;34586;53.616;10.032;2023-02-13T01:05:32;7.90;99.90
10873;DHT22;34586;53.616;10.032;2023-02-13T01:07:58;7.80;99.90
10873;DHT22;34586;53.616;10.032;2023-02-13T01:10:24;7.80;99.90
10873;DHT22;34586;53.616;10.032;2023-02-13T01:12:50;7.80;99.90
10873;DHT22;34586;53.616;10.032;2023-02-13T01:15:15;7.90;99.90
10873;DHT22;34586;53.616;10.032;2023-02-13T01:17:41;7.80;99.90
10873;DHT22;34586;53.616;10.032;2023-02-13T01:20:09;7.80;99.90
10873;DHT22;34586;53.616;10.032;2023-02-13T01:22:35;7.90;99.90
10873;DHT22;34586;53.616;10.032;2023-02-13T01:25:01;7.90;99.90
10873;DHT22;34586;53.616;10.032;2023-02-13T01:27:28;7.90;99.90
10873;DHT22;34586;53.616;10.032;2023-02-13T01:29:53;7.80;99.90
10873;DHT22;34586;53.616;10.032;2023-02-13T01:32:20;7.90;99.90
10873;DHT22;34586;53.616;10.032;2023-02-13T01:34:46;7.80;99.90
10873;DHT22;34586;53.616;10.032;2023-02-13T01:37:12;7.80;99.90
10873;DHT22;34586;53.616;10.032;2023-02-13T01:39:37;7.80;99.90
10873;DHT22;34586;53.616;10.032;2023-02-13T01:42:03;7.80;99.90
10873;DHT22;34586;53.616;10.032;2023-02-13T01:44:51;7.80;99.90
10873;DHT22;34586;53.616;10.032;2023-02-13T01:47:41;7.80;99.90
10873;DHT22;34586;53.616;10.032;2023-02-13T01:52:43;7.80;99.90
10873;DHT22;34586;53.616;10.032;2023-02-13T01:55:11;7.70;99.90
10873;DHT22;34586;53.616;10.032;2023-02-13T01:57:39;7.70;99.90
10873;DHT22;34586;53.616;10.032;2023-02-13T02:00:15;7.80;99.90
10873;DHT22;34586;53.616;10.032;2023-02-13T02:02:47;7.70;99.90
10873;DHT22;34586;53.616;10.032;2023-02-13T02:05:15;7.70;99.90
10873;DHT22;34586;53.616;10.032;2023-02-13T02:07:42;7.80;99.90
10873;DHT22;34586;53.616;10.032;2023-02-13T02:10:13;7.70;99.90
10873;DHT22;34586;53.616;10.032;2023-02-13T02:13:12;7.70;99.90
10873;DHT22;34586;53.616;10.032;2023-02-13T02:15:38;7.70;99.90
10873;DHT22;34586;53.616;10.032;2023-02-13T02:18:30;7.70;99.90
10873;DHT22;34586;53.616;10.032;2023-02-13T02:34:45;7.60;99.90
10873;DHT22;34586;53.616;10.032;2023-02-13T02:40:02;7.60;99.90
10873;DHT22;34586;53.616;10.032;2023-02-13T02:42:55;7.60;99.90
10873;DHT22;34586;53.616;10.032;2023-02-13T02:45:39;7.60;99.90
10873;DHT22;34586;53.616;10.032;2023-02-13T02:54:14;7.70;99.90
10873;DHT22;34586;53.616;10.032;2023-02-13T02:57:30;7.70;99.90
10873;DHT22;34586;53.616;10.032;2023-02-13T03:00:15;7.60;99.90
10873;DHT22;34586;53.616;10.032;2023-02-13T03:03:01;7.60;99.90
10873;DHT22;34586;53.616;10.032;2023-02-13T03:05:47;7.60;99.90
10873;DHT22;34586;53.616;10.032;2023-02-13T03:08:32;7.60;99.90
10873;DHT22;34586;53.616;10.032;2023-02-13T03:11:16;7.60;99.90
10873;DHT22;34586;53.616;10.032;2023-02-13T03:14:02;7.60;99.90
10873;DHT22;34586;53.616;10.032;2023-02-13T03:16:28;7.60;99.90
10873;DHT22;34586;53.616;10.032;2023-02-13T03:19:56;7.60;99.90
10873;DHT22;34586;53.616;10.032;2023-02-13T03:28:14;7.60;99.90
10873;DHT22;34586;53.616;10.032;2023-02-13T03:33:44;7.50;99.90
10873;DHT22;34586;53.616;10.032;2023-02-13T03:39:21;7.50;99.90
10873;DHT22;34586;53.616;10.032;2023-02-13T03:42:03;7.50;99.90
10873;DHT22;34586;53.616;10.032;2023-02-13T03:44:34;7.50;99.90
10873;DHT22;34586;53.616;10.032;2023-02-13T03:47:03;7.50;99.90
10873;DHT22;34586;53.616;10.032;2023-02-13T03:49:39;7.60;99.90
10873;DHT22;34586;53.616;10.032;2023-02-13T03:54:59;7.50;99.90
10873;DHT22;34586;53.616;10.032;2023-02-13T03:57:44;7.50;99.90
10873;DHT22;34586;53.616;10.032;2023-02-13T04:00:35;7.50;99.90
10873;DHT22;34586;53.616;10.032;2023-02-13T04:03:16;7.50;99.90
10873;DHT22;34586;53.616;10.032;2023-02-13T04:05:48;7.50;99.90
10873;DHT22;34586;53.616;10.032;2023-02-13T04:08:15;7.50;99.90
10873;DHT22;34586;53.616;10.032;2023-02-13T04:10:50;7.50;99.90
10873;DHT22;34586;53.616;10.032;2023-02-13T04:16:10;7.40;99.90
10873;DHT22;34586;53.616;10.032;2023-02-13T04:18:38;7.40;99.90
10873;DHT22;34586;53.616;10.032;2023-02-13T04:21:05;7.40;99.90
10873;DHT22;34586;53.616;10.032;2023-02-13T04:23:31;7.40;99.90
10873;DHT22;34586;53.616;10.032;2023-02-13T04:26:00;7.40;99.90
10873;DHT22;34586;53.616;10.032;2023-02-13T04:28:26;7.40;99.90
10873;DHT22;34586;53.616;10.032;2023-02-13T04:30:52;7.40;99.90
10873;DHT22;34586;53.616;10.032;2023-02-13T04:33:17;7.40;99.90
10873;DHT22;34586;53.616;10.032;2023-02-13T04:35:43;7.40;99.90
10873;DHT22;34586;53.616;10.032;2023-02-13T04:38:09;7.40;99.90
10873;DHT22;34586;53.616;10.032;2023-02-13T04:40:34;7.40;99.90
10873;DHT22;34586;53.616;10.032;2023-02-13T04:43:00;7.40;99.90
10873;DHT22;34586;53.616;10.032;2023-02-13T04:45:25;7.40;99.90
10873;DHT22;34586;53.616;10.032;2023-02-13T04:47:53;7.40;99.90
10873;DHT22;34586;53.616;10.032;2023-02-13T04:50:19;7.40;99.90
10873;DHT22;34586;53.616;10.032;2023-02-13T04:52:45;7.40;99.90
10873;DHT22;34586;53.616;10.032;2023-02-13T04:55:10;7.40;99.90
10873;DHT22;34586;53.616;10.032;2023-02-13T04:57:36;7.40;99.90
10873;DHT22;34586;53.616;10.032;2023-02-13T05:00:03;7.40;99.90
10873;DHT22;34586;53.616;10.032;2023-02-13T05:02:30;7.30;99.90
10873;DHT22;34586;53.616;10.032;2023-02-13T05:04:56;7.40;99.90
10873;DHT22;34586;53.616;10.032;2023-02-13T05:07:21;7.30;99.90
10873;DHT22;34586;53.616;10.032;2023-02-13T05:09:47;7.30;99.90
10873;DHT22;34586;53.616;10.032;2023-02-13T05:12:13;7.30;99.90
10873;DHT22;34586;53.616;10.032;2023-02-13T05:14:39;7.30;99.90
10873;DHT22;34586;53.616;10.032;2023-02-13T05:17:04;7.30;99.90
10873;DHT22;34586;53.616;10.032;2023-02-13T05:19:30;7.30;99.90
10873;DHT22;34586;53.616;10.032;2023-02-13T05:21:55;7.30;99.90
10873;DHT22;34586;53.616;10.032;2023-02-13T05:24:40;7.30;99.90
10873;DHT22;34586;53.616;10.032;2023-02-13T05:27:05;7.30;99.90
10873;DHT22;34586;53.616;10.032;2023-02-13T05:29:31;7.30;99.90
10873;DHT22;34586;53.616;10.032;2023-02-13T05:31:57;7.30;99.90
10873;DHT22;34586;53.616;10.032;2023-02-13T05:34:24;7.30;99.90
10873;DHT22;34586;53.616;10.032;2023-02-13T05:36:51;7.30;99.90
10873;DHT22;34586;53.616;10.032;2023-02-13T05:39:17;7.30;99.90
10873;DHT22;34586;53.616;10.032;2023-02-13T05:41:43;7.20;99.90
10873;DHT22;34586;53.616;10.032;2023-02-13T05:44:10;7.20;99.90
10873;DHT22;34586;53.616;10.032;2023-02-13T05:46:37;7.30;99.90
10873;DHT22;34586;53.616;10.032;2023-02-13T05:49:03;7.30;99.90
10873;DHT22;34586;53.616;10.032;2023-02-13T05:51:29;7.30;99.90
10873;DHT22;34586;53.616;10.032;2023-02-13T05:53:54;7.30;99.90
10873;DHT22;34586;53.616;10.032;2023-02-13T05:56:20;7.30;99.90
10873;DHT22;34586;53.616;10.032;2023-02-13T05:58:45;7.40;99.90
10873;DHT22;34586;53.616;10.032;2023-02-13T06:01:12;7.30;99.90
10873;DHT22;34586;53.616;10.032;2023-02-13T06:03:37;7.30;99.90
10873;DHT22;34586;53.616;10.032;2023-02-13T06:06:04;7.30;99.90
10873;DHT22;34586;53.616;10.032;2023-02-13T06:08:30;7.30;99.90
10873;DHT22;34586;53.616;10.032;2023-02-13T06:10:56;7.30;99.90
10873;DHT22;34586;53.616;10.032;2023-02-13T06:13:22;7.30;99.90
10873;DHT22;34586;53.616;10.032;2023-02-13T06:15:47;7.30;99.90
10873;DHT22;34586;53.616;10.032;2023-02-13T06:18:15;7.30;99.90
10873;DHT22;34586;53.616;10.032;2023-02-13T06:20:40;7.30;99.90
10873;DHT22;34586;53.616;10.032;2023-02-13T06:23:06;7.30;99.90
10873;DHT22;34586;53.616;10.032;2023-02-13T06:25:34;7.30;99.90
10873;DHT22;34586;53.616;10.032;2023-02-13T06:28:00;7.30;99.90
10873;DHT22;34586;53.616;10.032;2023-02-13T06:30:25;7.30;99.90
10873;DHT22;34586;53.616;10.032;2023-02-13T06:32:51;7.30;99.90
10873;DHT22;34586;53.616;10.032;2023-02-13T06:35:17;7.30;99.90
10873;DHT22;34586;53.616;10.032;2023-02-13T06:37:42;7.30;99.90
10873;DHT22;34586;53.616;10.032;2023-02-13T06:40:09;7.30;99.90
10873;DHT22;34586;53.616;10.032;2023-02-13T06:42:35;7.30;99.90
10873;DHT22;34586;53.616;10.032;2023-02-13T06:45:01;7.20;99.90
10873;DHT22;34586;53.616;10.032;2023-02-13T06:47:26;7.30;99.90
10873;DHT22;34586;53.616;10.032;2023-02-13T06:49:52;7.20;99.90
10873;DHT22;34586;53.616;10.032;2023-02-13T06:52:18;7.30;99.90
10873;DHT22;34586;53.616;10.032;2023-02-13T06:54:43;7.20;99.90
10873;DHT22;34586;53.616;10.032;2023-02-13T06:57:09;7.30;99.90
10873;DHT22;34586;53.616;10.032;2023-02-13T06:59:35;7.30;99.90
10873;DHT22;34586;53.616;10.032;2023-02-13T07:02:01;7.30;99.90
10873;DHT22;34586;53.616;10.032;2023-02-13T07:04:27;7.30;99.90
10873;DHT22;34586;53.616;10.032;2023-02-13T07:06:56;7.30;99.90
10873;DHT22;34586;53.616;10.032;2023-02-13T07:09:23;7.30;99.90
10873;DHT22;34586;53.616;10.032;2023-02-13T07:11:49;7.30;99.90
10873;DHT22;34586;53.616;10.032;2023-02-13T07:14:15;7.30;99.90
10873;DHT22;34586;53.616;10.032;2023-02-13T07:16:40;7.40;99.90
10873;DHT22;34586;53.616;10.032;2023-02-13T07:19:06;7.40;99.90
10873;DHT22;34586;53.616;10.032;2023-02-13T07:21:31;7.30;99.90
10873;DHT22;34586;53.616;10.032;2023-02-13T07:23:57;7.30;99.90
10873;DHT22;34586;53.616;10.032;2023-02-13T07:26:23;7.30;99.90
10873;DHT22;34586;53.616;10.032;2023-02-13T07:28:48;7.30;99.90
10873;DHT22;34586;53.616;10.032;2023-02-13T07:31:14;7.40;99.90
10873;DHT22;34586;53.616;10.032;2023-02-13T07:33:39;7.40;99.90
10873;DHT22;34586;53.616;10.032;2023-02-13T07:36:05;7.30;99.90
10873;DHT22;34586;53.616;10.032;2023-02-13T07:38:31;7.30;99.90
10873;DHT22;34586;53.616;10.032;2023-02-13T07:41:01;7.30;99.90
10873;DHT22;34586;53.616;10.032;2023-02-13T07:43:28;7.30;99.90
10873;DHT22;34586;53.616;10.032;2023-02-13T07:45:57;7.30;99.90
10873;DHT22;34586;53.616;10.032;2023-02-13T07:48:24;7.30;99.90
10873;DHT22;34586;53.616;10.032;2023-02-13T07:50:52;7.40;99.90
10873;DHT22;34586;53.616;10.032;2023-02-13T07:53:18;7.40;99.90
10873;DHT22;34586;53.616;10.032;2023-02-13T07:55:43;7.50;99.90
10873;DHT22;34586;53.616;10.032;2023-02-13T07:58:09;7.40;99.90
10873;DHT22;34586;53.616;10.032;2023-02-13T08:00:35;7.50;99.90
10873;DHT22;34586;53.616;10.032;2023-02-13T08:03:01;7.50;99.90
10873;DHT22;34586;53.616;10.032;2023-02-13T08:05:27;7.40;99.90
10873;DHT22;34586;53.616;10.032;2023-02-13T08:07:53;7.40;99.90
10873;DHT22;34586;53.616;10.032;2023-02-13T08:10:19;7.50;99.90
10873;DHT22;34586;53.616;10.032;2023-02-13T08:13:04;7.50;99.90
10873;DHT22;34586;53.616;10.032;2023-02-13T08:15:31;7.50;99.90
10873;DHT22;34586;53.616;10.032;2023-02-13T08:17:56;7.50;99.90
10873;DHT22;34586;53.616;10.032;2023-02-13T08:20:22;7.50;99.90
10873;DHT22;34586;53.616;10.032;2023-02-13T08:22:49;7.50;99.90
10873;DHT22;34586;53.616;10.032;2023-02-13T08:25:15;7.50;99.90
10873;DHT22;34586;53.616;10.032;2023-02-13T08:27:40;7.50;99.90
10873;DHT22;34586;53.616;10.032;2023-02-13T08:30:07;7.50;99.90
10873;DHT22;34586;53.616;10.032;2023-02-13T08:32:32;7.50;99.90
10873;DHT22;34586;53.616;10.032;2023-02-13T08:34:58;7.50;99.90
10873;DHT22;34586;53.616;10.032;2023-02-13T08:37:24;7.50;99.90
10873;DHT22;34586;53.616;10.032;2023-02-13T08:39:49;7.60;99.90
10873;DHT22;34586;53.616;10.032;2023-02-13T08:42:15;7.60;99.90
10873;DHT22;34586;53.616;10.032;2023-02-13T08:44:40;7.50;99.90
10873;DHT22;34586;53.616;10.032;2023-02-13T08:47:08;7.60;99.90
10873;DHT22;34586;53.616;10.032;2023-02-13T08:49:33;7.60;99.90
10873;DHT22;34586;53.616;10.032;2023-02-13T08:52:00;7.60;99.90
10873;DHT22;34586;53.616;10.032;2023-02-13T08:54:26;7.60;99.90
10873;DHT22;34586;53.616;10.032;2023-02-13T08:56:53;7.60;99.90
10873;DHT22;34586;53.616;10.032;2023-02-13T08:59:19;7.60;99.90
10873;DHT22;34586;53.616;10.032;2023-02-13T09:01:45;7.70;99.90
10873;DHT22;34586;53.616;10.032;2023-02-13T09:04:10;7.70;99.90
10873;DHT22;34586;53.616;10.032;2023-02-13T09:06:36;7.70;99.90
10873;DHT22;34586;53.616;10.032;2023-02-13T09:09:04;7.70;99.90
10873;DHT22;34586;53.616;10.032;2023-02-13T09:11:29;7.70;99.90
10873;DHT22;34586;53.616;10.032;2023-02-13T09:13:55;7.80;99.90
10873;DHT22;34586;53.616;10.032;2023-02-13T09:16:21;7.80;99.90
10873;DHT22;34586;53.616;10.032;2023-02-13T09:18:47;7.80;99.90
10873;DHT22;34586;53.616;10.032;2023-02-13T09:21:14;7.80;99.90
10873;DHT22;34586;53.616;10.032;2023-02-13T09:23:40;7.90;99.90
10873;DHT22;34586;53.616;10.032;2023-02-13T09:26:11;7.90;99.90
10873;DHT22;34586;53.616;10.032;2023-02-13T09:28:37;7.90;99.90
10873;DHT22;34586;53.616;10.032;2023-02-13T09:31:06;7.90;99.90
10873;DHT22;34586;53.616;10.032;2023-02-13T09:33:32;7.90;99.90
10873;DHT22;34586;53.616;10.032;2023-02-13T09:36:06;7.90;99.90
10873;DHT22;34586;53.616;10.032;2023-02-13T09:38:32;7.90;99.90
10873;DHT22;34586;53.616;10.032;2023-02-13T09:41:23;7.90;99.90
10873;DHT22;34586;53.616;10.032;2023-02-13T09:44:02;7.90;99.90
10873;DHT22;34586;53.616;10.032;2023-02-13T09:46:36;7.90;99.90
10873;DHT22;34586;53.616;10.032;2023-02-13T09:49:16;8.10;99.90
10873;DHT22;34586;53.616;10.032;2023-02-13T09:51:45;8.10;95.00
10873;DHT22;34586;53.616;10.032;2023-02-13T09:54:15;8.10;77.40
10873;DHT22;34586;53.616;10.032;2023-02-13T09:56:44;8.10;50.10
10873;DHT22;34586;53.616;10.032;2023-02-13T10:05:36;8.20;70.20
10873;DHT22;34586;53.616;10.032;2023-02-13T10:08:30;8.20;1.00
10873;DHT22;34586;53.616;10.032;2023-02-13T10:11:40;8.10;1.00
10873;DHT22;34586;53.616;10.032;2023-02-13T10:14:22;8.20;1.00
10873;DHT22;34586;53.616;10.032;2023-02-13T10:16:50;8.20;1.00
10873;DHT22;34586;53.616;10.032;2023-02-13T10:22:01;8.30;1.00
10873;DHT22;34586;53.616;10.032;2023-02-13T10:24:37;8.30;1.00
10873;DHT22;34586;53.616;10.032;2023-02-13T10:27:19;8.30;1.00
10873;DHT22;34586;53.616;10.032;2023-02-13T10:29:58;8.30;1.00
10873;DHT22;34586;53.616;10.032;2023-02-13T10:32:47;8.30;1.00
10873;DHT22;34586;53.616;10.032;2023-02-13T10:35:28;8.40;1.00
10873;DHT22;34586;53.616;10.032;2023-02-13T10:37:57;8.40;1.00
10873;DHT22;34586;53.616;10.032;2023-02-13T10:40:31;8.40;1.00
10873;DHT22;34586;53.616;10.032;2023-02-13T10:43:09;8.50;1.00
10873;DHT22;34586;53.616;10.032;2023-02-13T10:45:50;8.50;99.90
10873;DHT22;34586;53.616;10.032;2023-02-13T10:51:23;8.50;1.00
10873;DHT22;34586;53.616;10.032;2023-02-13T11:02:23;8.50;99.90
10873;DHT22;34586;53.616;10.032;2023-02-13T11:04:52;8.60;1.00
10873;DHT22;34586;53.616;10.032;2023-02-13T11:07:23;8.50;1.00
10873;DHT22;34586;53.616;10.032;2023-02-13T11:09:52;8.70;1.00
10873;DHT22;34586;53.616;10.032;2023-02-13T11:12:30;8.60;1.00
10873;DHT22;34586;53.616;10.032;2023-02-13T11:15:02;8.70;1.00
10873;DHT22;34586;53.616;10.032;2023-02-13T11:17:31;8.70;1.00
10873;DHT22;34586;53.616;10.032;2023-02-13T11:20:04;8.70;1.00
10873;DHT22;34586;53.616;10.032;2023-02-13T11:22:41;8.90;9.90
10873;DHT22;34586;53.616;10.032;2023-02-13T11:25:20;8.80;99.90
10873;DHT22;34586;53.616;10.032;2023-02-13T11:27:49;8.90;99.90
10873;DHT22;34586;53.616;10.032;2023-02-13T11:30:32;8.90;96.40
10873;DHT22;34586;53.616;10.032;2023-02-13T11:33:08;8.90;30.20
10873;DHT22;34586;53.616;10.032;2023-02-13T11:35:46;9.00;4.80
10873;DHT22;34586;53.616;10.032;2023-02-13T11:38:23;8.90;1.00
10873;DHT22;34586;53.616;10.032;2023-02-13T11:41:07;8.90;99.90
10873;DHT22;34586;53.616;10.032;2023-02-13T11:43:39;8.90;83.80
10873;DHT22;34586;53.616;10.032;2023-02-13T11:48:34;8.80;1.00
10873;DHT22;34586;53.616;10.032;2023-02-13T11:51:00;8.80;99.90
10873;DHT22;34586;53.616;10.032;2023-02-13T11:53:37;8.80;99.90
10873;DHT22;34586;53.616;10.032;2023-02-13T11:58:31;8.90;1.00
10873;DHT22;34586;53.616;10.032;2023-02-13T12:01:29;8.90;99.90
10873;DHT22;34586;53.616;10.032;2023-02-13T12:04:12;9.00;92.90
10873;DHT22;34586;53.616;10.032;2023-02-13T12:06:41;9.10;99.90
10873;DHT22;34586;53.616;10.032;2023-02-13T12:09:21;9.20;99.90
10873;DHT22;34586;53.616;10.032;2023-02-13T12:11:52;9.10;99.90
10873;DHT22;34586;53.616;10.032;2023-02-13T12:14:24;9.10;99.90
10873;DHT22;34586;53.616;10.032;2023-02-13T12:17:00;9.20;99.90
10873;DHT22;34586;53.616;10.032;2023-02-13T12:19:43;9.20;99.90
10873;DHT22;34586;53.616;10.032;2023-02-13T12:22:31;9.20;1.00
10873;DHT22;34586;53.616;10.032;2023-02-13T12:40:51;9.00;99.90
10873;DHT22;34586;53.616;10.032;2023-02-13T12:51:40;8.90;1.00
10873;DHT22;34586;53.616;10.032;2023-02-13T12:57:44;9.00;1.00
10873;DHT22;34586;53.616;10.032;2023-02-13T13:06:09;9.00;79.40
10873;DHT22;34586;53.616;10.032;2023-02-13T13:19:44;9.10;99.90
10873;DHT22;34586;53.616;10.032;2023-02-13T13:22:19;9.10;99.90
10873;DHT22;34586;53.616;10.032;2023-02-13T13:25:22;9.00;1.00
10873;DHT22;34586;53.616;10.032;2023-02-13T13:27:52;9.00;99.90
10873;DHT22;34586;53.616;10.032;2023-02-13T13:30:23;8.90;1.00
10873;DHT22;34586;53.616;10.032;2023-02-13T13:32:54;9.00;99.90
10873;DHT22;34586;53.616;10.032;2023-02-13T13:35:21;9.00;1.00
10873;DHT22;34586;53.616;10.032;2023-02-13T13:41:14;8.90;99.90
10873;DHT22;34586;53.616;10.032;2023-02-13T13:44:05;8.80;92.80
10873;DHT22;34586;53.616;10.032;2023-02-13T13:49:24;8.70;99.90
10873;DHT22;34586;53.616;10.032;2023-02-13T13:51:52;8.70;1.00
10873;DHT22;34586;53.616;10.032;2023-02-13T13:54:21;8.80;71.10
10873;DHT22;34586;53.616;10.032;2023-02-13T14:05:24;8.70;1.00
10873;DHT22;34586;53.616;10.032;2023-02-13T14:07:59;8.60;1.00
10873;DHT22;34586;53.616;10.032;2023-02-13T14:26:12;8.50;99.90
10873;DHT22;34586;53.616;10.032;2023-02-13T14:31:26;8.50;99.90
10873;DHT22;34586;53.616;10.032;2023-02-13T14:36:33;8.40;99.90
10873;DHT22;34586;53.616;10.032;2023-02-13T14:46:48;8.30;99.90
10873;DHT22;34586;53.616;10.032;2023-02-13T14:49:24;8.30;1.00
10873;DHT22;34586;53.616;10.032;2023-02-13T14:51:54;8.30;99.90
10873;DHT22;34586;53.616;10.032;2023-02-13T14:54:25;8.30;99.90
10873;DHT22;34586;53.616;10.032;2023-02-13T14:56:58;8.30;99.90
10873;DHT22;34586;53.616;10.032;2023-02-13T14:59:28;8.30;64.70
10873;DHT22;34586;53.616;10.032;2023-02-13T15:02:03;8.20;30.50
10873;DHT22;34586;53.616;10.032;2023-02-13T15:04:41;8.20;99.90
10873;DHT22;34586;53.616;10.032;2023-02-13T15:07:14;8.20;96.30
10873;DHT22;34586;53.616;10.032;2023-02-13T15:09:47;8.10;99.90
10873;DHT22;34586;53.616;10.032;2023-02-13T15:12:30;8.10;99.90
10873;DHT22;34586;53.616;10.032;2023-02-13T15:14:56;8.00;99.90
10873;DHT22;34586;53.616;10.032;2023-02-13T15:17:25;8.10;99.90
10873;DHT22;34586;53.616;10.032;2023-02-13T15:20:02;8.00;99.90
10873;DHT22;34586;53.616;10.032;2023-02-13T15:22:37;8.00;1.00
10873;DHT22;34586;53.616;10.032;2023-02-13T15:25:06;8.10;99.90
10873;DHT22;34586;53.616;10.032;2023-02-13T15:27:40;8.00;99.90
10873;DHT22;34586;53.616;10.032;2023-02-13T15:30:30;8.00;99.90
10873;DHT22;34586;53.616;10.032;2023-02-13T15:33:01;8.00;1.00
10873;DHT22;34586;53.616;10.032;2023-02-13T15:35:31;8.00;1.00
10873;DHT22;34586;53.616;10.032;2023-02-13T15:37:57;8.00;99.90
10873;DHT22;34586;53.616;10.032;2023-02-13T15:40:26;7.90;1.00
10873;DHT22;34586;53.616;10.032;2023-02-13T15:42:53;7.90;99.90
10873;DHT22;34586;53.616;10.032;2023-02-13T15:45:21;7.90;1.00
10873;DHT22;34586;53.616;10.032;2023-02-13T15:47:48;7.90;1.00
10873;DHT22;34586;53.616;10.032;2023-02-13T15:50:37;7.80;1.00
10873;DHT22;34586;53.616;10.032;2023-02-13T15:53:12;7.80;1.00
10873;DHT22;34586;53.616;10.032;2023-02-13T15:55:39;7.80;99.90
10873;DHT22;34586;53.616;10.032;2023-02-13T15:58:05;7.80;99.90
10873;DHT22;34586;53.616;10.032;2023-02-13T16:00:38;7.80;16.50
10873;DHT22;34586;53.616;10.032;2023-02-13T16:03:06;7.70;1.00
10873;DHT22;34586;53.616;10.032;2023-02-13T16:05:38;7.70;99.90
10873;DHT22;34586;53.616;10.032;2023-02-13T16:08:32;7.70;99.90
10873;DHT22;34586;53.616;10.032;2023-02-13T16:16:25;7.70;1.00
10873;DHT22;34586;53.616;10.032;2023-02-13T16:18:51;7.60;99.90
10873;DHT22;34586;53.616;10.032;2023-02-13T16:21:23;7.60;99.90
10873;DHT22;34586;53.616;10.032;2023-02-13T16:23:56;7.60;47.50
10873;DHT22;34586;53.616;10.032;2023-02-13T16:26:22;7.60;1.00
10873;DHT22;34586;53.616;10.032;2023-02-13T16:28:48;7.50;1.00
10873;DHT22;34586;53.616;10.032;2023-02-13T16:31:15;7.50;99.90
10873;DHT22;34586;53.616;10.032;2023-02-13T16:33:42;7.50;99.90
10873;DHT22;34586;53.616;10.032;2023-02-13T16:43:48;7.40;16.60
10873;DHT22;34586;53.616;10.032;2023-02-13T16:48:58;7.40;1.00
10873;DHT22;34586;53.616;10.032;2023-02-13T16:51:37;7.40;1.00
10873;DHT22;34586;53.616;10.032;2023-02-13T16:56:39;7.40;99.90
10873;DHT22;34586;53.616;10.032;2023-02-13T17:02:16;7.40;38.70
10873;DHT22;34586;53.616;10.032;2023-02-13T17:04:44;7.40;94.30
10873;DHT22;34586;53.616;10.032;2023-02-13T17:07:18;7.40;99.90
10873;DHT22;34586;53.616;10.032;2023-02-13T17:09:44;7.40;99.90
10873;DHT22;34586;53.616;10.032;2023-02-13T17:12:15;7.40;99.90
10873;DHT22;34586;53.616;10.032;2023-02-13T17:14:42;7.40;99.90
10873;DHT22;34586;53.616;10.032;2023-02-13T17:17:16;7.30;99.90
10873;DHT22;34586;53.616;10.032;2023-02-13T17:19:41;7.30;1.00
10873;DHT22;34586;53.616;10.032;2023-02-13T17:22:24;7.30;1.00
10873;DHT22;34586;53.616;10.032;2023-02-13T17:24:51;7.30;1.00
10873;DHT22;34586;53.616;10.032;2023-02-13T17:27:17;7.40;99.90
10873;DHT22;34586;53.616;10.032;2023-02-13T17:29:42;7.30;1.00
10873;DHT22;34586;53.616;10.032;2023-02-13T17:32:18;7.30;99.90
10873;DHT22;34586;53.616;10.032;2023-02-13T17:34:45;7.30;99.90
10873;DHT22;34586;53.616;10.032;2023-02-13T17:37:23;7.30;1.00
10873;DHT22;34586;53.616;10.032;2023-02-13T17:39:49;7.30;99.90
10873;DHT22;34586;53.616;10.032;2023-02-13T17:42:34;7.30;1.00
10873;DHT22;34586;53.616;10.032;2023-02-13T17:45:00;7.20;99.90
10873;DHT22;34586;53.616;10.032;2023-02-13T17:47:26;7.20;99.90
10873;DHT22;34586;53.616;10.032;2023-02-13T17:49:51;7.20;99.90
10873;DHT22;34586;53.616;10.032;2023-02-13T17:52:23;7.20;99.90
10873;DHT22;34586;53.616;10.032;2023-02-13T17:54:50;7.20;99.90
10873;DHT22;34586;53.616;10.032;2023-02-13T17:57:17;7.40;99.90
10873;DHT22;34586;53.616;10.032;2023-02-13T17:59:43;8.20;99.90
10873;DHT22;34586;53.616;10.032;2023-02-13T18:04:39;7.20;1.00
10873;DHT22;34586;53.616;10.032;2023-02-13T18:07:05;7.20;99.90
10873;DHT22;34586;53.616;10.032;2023-02-13T18:09:30;7.20;72.70
10873;DHT22;34586;53.616;10.032;2023-02-13T18:11:56;7.20;99.90
10873;DHT22;34586;53.616;10.032;2023-02-13T18:14:22;7.20;99.90
10873;DHT22;34586;53.616;10.032;2023-02-13T18:16:47;7.20;99.90
10873;DHT22;34586;53.616;10.032;2023-02-13T18:19:13;7.20;99.90
10873;DHT22;34586;53.616;10.032;2023-02-13T18:21:39;7.30;99.90
10873;DHT22;34586;53.616;10.032;2023-02-13T18:24:06;7.20;99.90
10873;DHT22;34586;53.616;10.032;2023-02-13T18:26:31;7.20;99.90
10873;DHT22;34586;53.616;10.032;2023-02-13T18:28:57;7.20;99.90
10873;DHT22;34586;53.616;10.032;2023-02-13T18:31:23;7.30;99.90
10873;DHT22;34586;53.616;10.032;2023-02-13T18:33:49;7.20;99.90
10873;DHT22;34586;53.616;10.032;2023-02-13T18:36:14;7.20;1.00
10873;DHT22;34586;53.616;10.032;2023-02-13T18:38:40;7.20;1.00
10873;DHT22;34586;53.616;10.032;2023-02-13T18:41:06;7.20;99.90
10873;DHT22;34586;53.616;10.032;2023-02-13T18:43:31;7.20;99.90
10873;DHT22;34586;53.616;10.032;2023-02-13T18:45:57;7.20;99.90
10873;DHT22;34586;53.616;10.032;2023-02-13T18:48:22;7.20;99.90
10873;DHT22;34586;53.616;10.032;2023-02-13T18:50:48;7.10;80.70
10873;DHT22;34586;53.616;10.032;2023-02-13T18:53:13;7.10;99.90